Time;durP1;ratioP1;P1;durP2;ratioP2;P2;SDS_P1;SDS_P2;PMS_P1;PMS_P2;Temp;Humidity;BMP_temperature;BMP_pressure;BME280_temperature;BME280_humidity;BME280_pressure;Samples;Min_cycle;Max_cycle;Signal;HPM_P1;HPM_P2
2022/03/09 00:00:33;;;;;;;13.75;3.30;;;;;;;-7.87;60.87;100189.53;6020725;23;20098;-68
2022/03/09 00:02:58;;;;;;;11.13;3.63;;;;;;;-7.96;59.68;100190.56;6044414;23;20059;-67
2022/03/09 00:05:24;;;;;;;13.68;3.95;;;;;;;-7.97;60.22;100187.94;6044590;23;20477;-68
2022/03/09 00:07:50;;;;;;;11.05;3.47;;;;;;;-7.96;60.44;100194.94;6068462;23;20435;-69
2022/03/09 00:10:16;;;;;;;12.55;4.07;;;;;;;-8.00;61.36;100188.88;6044528;23;20117;-68
2022/03/09 00:12:43;;;;;;;11.80;3.97;;;;;;;-7.98;61.12;100191.47;6021709;23;20346;-69
2022/03/09 00:15:09;;;;;;;16.83;3.72;;;;;;;-8.16;61.26;100169.84;6044450;23;20429;-67
2022/03/09 00:17:35;;;;;;;14.55;3.60;;;;;;;-8.05;61.03;100195.94;6068352;23;20026;-68
2022/03/09 00:20:01;;;;;;;14.00;4.07;;;;;;;-8.11;62.63;100186.41;6043853;23;20090;-68
2022/03/09 00:22:28;;;;;;;11.10;4.18;;;;;;;-8.19;62.68;100172.53;6068465;23;20057;-67
2022/03/09 00:24:54;;;;;;;12.73;3.97;;;;;;;-8.05;61.40;100202.03;6020625;23;20028;-68
2022/03/09 00:27:20;;;;;;;12.98;3.28;;;;;;;-8.13;60.47;100198.66;6044379;23;20022;-67
2022/03/09 00:29:46;;;;;;;14.80;4.45;;;;;;;-8.09;61.36;100200.34;6045702;23;20104;-69
2022/03/09 00:32:13;;;;;;;13.55;4.43;;;;;;;-8.36;61.17;100180.63;6044496;23;20037;-67
2022/03/09 00:34:39;;;;;;;11.38;3.83;;;;;;;-8.25;61.43;100207.56;6044345;23;20018;-67
2022/03/09 00:37:05;;;;;;;13.30;4.35;;;;;;;-8.29;62.06;100202.38;6044697;23;20027;-69
2022/03/09 00:39:31;;;;;;;14.23;3.15;;;;;;;-8.31;61.13;100212.00;6044862;23;20368;-66
2022/03/09 00:41:57;;;;;;;12.63;4.28;;;;;;;-8.31;61.87;100215.50;6068936;23;20065;-68
2022/03/09 00:44:23;;;;;;;13.25;3.70;;;;;;;-8.30;62.17;100216.38;6068612;23;20026;-67
2022/03/09 00:46:49;;;;;;;11.82;3.67;;;;;;;-8.47;61.96;100193.03;6044862;23;20460;-66
2022/03/09 00:49:15;;;;;;;15.23;3.42;;;;;;;-8.38;61.60;100207.78;6068172;23;20056;-68
2022/03/09 00:51:41;;;;;;;12.13;2.80;;;;;;;-8.45;61.00;100213.97;6067303;23;20026;-67
2022/03/09 00:54:07;;;;;;;12.40;3.53;;;;;;;-8.43;61.19;100214.84;6043530;23;20431;-66
2022/03/09 00:56:34;;;;;;;8.85;2.90;;;;;;;-8.49;61.32;100218.38;6044513;23;20082;-67
2022/03/09 00:59:00;;;;;;;11.23;3.85;;;;;;;-8.60;61.33;100218.50;6068032;23;20460;-66
2022/03/09 01:01:25;;;;;;;9.65;2.60;;;;;;;-8.55;60.69;100216.72;6043545;23;20032;-67
2022/03/09 01:03:51;;;;;;;11.52;3.25;;;;;;;-8.65;60.83;100204.59;6043871;23;20493;-67
2022/03/09 01:06:17;;;;;;;14.70;4.07;;;;;;;-8.76;61.49;100201.25;6067424;23;20061;-67
2022/03/09 01:08:43;;;;;;;11.27;3.38;;;;;;;-8.59;60.57;100230.75;6043299;23;20030;-68
2022/03/09 01:11:10;;;;;;;14.02;3.75;;;;;;;-8.68;60.80;100224.72;6020159;23;20026;-69
2022/03/09 01:13:36;;;;;;;14.18;4.45;;;;;;;-8.63;60.60;100225.53;6044652;23;20071;-67
2022/03/09 01:16:03;;;;;;;13.25;4.10;;;;;;;-8.67;60.41;100231.69;6044466;23;20041;-67
2022/03/09 01:18:29;;;;;;;12.98;4.00;;;;;;;-8.73;60.40;100231.78;6068025;23;20130;-67
2022/03/09 01:20:55;;;;;;;11.75;3.65;;;;;;;-8.81;60.75;100235.34;6043846;23;20086;-66
2022/03/09 01:23:20;;;;;;;12.15;3.83;;;;;;;-8.81;60.73;100234.47;6067857;23;20138;-67
2022/03/09 01:25:46;;;;;;;12.00;4.05;;;;;;;-8.90;61.30;100229.34;6043560;23;20086;-69
2022/03/09 01:28:12;;;;;;;11.68;3.97;;;;;;;-8.91;60.78;100233.72;6043527;23;20026;-68
2022/03/09 01:30:38;;;;;;;14.18;3.88;;;;;;;-8.94;60.53;100235.50;6043369;23;20030;-67
2022/03/09 01:33:04;;;;;;;12.48;3.58;;;;;;;-8.96;60.20;100239.88;6020299;23;20552;-67
2022/03/09 01:35:30;;;;;;;12.63;3.75;;;;;;;-9.03;60.44;100245.19;6043971;23;20088;-68
2022/03/09 01:37:56;;;;;;;12.18;4.57;;;;;;;-8.98;60.59;100247.75;6067183;23;20078;-67
2022/03/09 01:40:22;;;;;;;10.73;4.20;;;;;;;-9.01;60.42;100243.41;6067391;23;20026;-67
2022/03/09 01:42:48;;;;;;;9.55;3.22;;;;;;;-9.20;59.67;100236.59;6043530;23;20026;-67
2022/03/09 01:45:15;;;;;;;13.63;4.60;;;;;;;-9.23;60.04;100258.44;6043619;23;20057;-66
2022/03/09 01:47:41;;;;;;;13.15;4.68;;;;;;;-9.30;60.56;100246.28;6067380;23;20027;-67
2022/03/09 01:50:09;;;;;;;11.38;3.92;;;;;;;-9.27;61.49;100253.25;6043746;23;20034;-67
2022/03/09 01:52:36;;;;;;;12.40;4.13;;;;;;;-9.29;60.46;100260.22;6044775;23;20057;-68
2022/03/09 01:55:03;;;;;;;13.57;4.35;;;;;;;-9.29;60.56;100260.22;6021882;23;20093;-67
2022/03/09 01:57:30;;;;;;;10.52;3.80;;;;;;;-9.28;60.50;100265.47;6093209;23;20135;-66
2022/03/09 01:59:56;;;;;;;12.90;3.72;;;;;;;-9.36;59.64;100272.53;6043992;23;20445;-69
2022/03/09 02:02:23;;;;;;;12.38;3.60;;;;;;;-9.34;60.73;100269.88;6020151;23;20026;-66
2022/03/09 02:04:49;;;;;;;17.73;5.10;;;;;;;-9.49;60.80;100265.63;6067467;23;20109;-67
2022/03/09 02:07:15;;;;;;;13.77;3.88;;;;;;;-9.48;60.13;100273.47;6043289;23;20046;-67
2022/03/09 02:09:44;;;;;;;10.85;3.90;;;;;;;-9.59;60.44;100275.28;6042990;23;20171;-66
2022/03/09 02:12:18;;;;;;;15.48;4.28;;;;;;;-9.54;61.97;100268.28;6044668;23;20066;-67
2022/03/09 02:14:46;;;;;;;13.02;4.63;;;;;;;-9.56;61.03;100284.88;6043906;23;20058;-67
2022/03/09 02:17:26;;;;;;;12.23;3.45;;;;;;;-9.91;61.60;100245.84;6044953;23;20332;-66
2022/03/09 02:19:53;;;;;;;12.50;3.40;;;;;;;-9.62;62.22;100284.91;6023477;23;20026;-67
2022/03/09 02:22:37;;;;;;;9.55;3.08;;;;;;;-9.81;61.60;100284.16;6022656;23;20022;-68
2022/03/09 02:25:08;;;;;;;10.35;3.63;;;;;;;-9.81;61.95;100299.84;6045630;23;20022;-67
2022/03/09 02:27:34;;;;;;;12.95;4.10;;;;;;;-9.87;62.20;100299.88;6069869;23;20048;-66
2022/03/09 02:30:01;;;;;;;10.95;3.72;;;;;;;-9.89;61.20;100306.88;6069537;23;20075;-68
2022/03/09 02:32:27;;;;;;;12.02;3.55;;;;;;;-9.99;61.24;100296.44;6045461;23;20232;-66
2022/03/09 02:34:54;;;;;;;11.68;3.58;;;;;;;-10.07;61.45;100313.91;6045929;23;20082;-66
2022/03/09 02:37:21;;;;;;;12.65;4.25;;;;;;;-10.14;61.61;100317.44;6069460;23;20076;-66
2022/03/09 02:39:46;;;;;;;11.35;3.85;;;;;;;-10.30;61.96;100306.22;6045779;23;20034;-70
2022/03/09 02:42:12;;;;;;;11.57;3.60;;;;;;;-10.53;62.20;100282.78;6020862;23;20550;-67
2022/03/09 02:44:38;;;;;;;10.52;3.08;;;;;;;-10.42;62.44;100318.44;6044798;23;20038;-66
2022/03/09 02:47:07;;;;;;;10.90;3.17;;;;;;;-10.57;63.03;100314.97;6021843;23;20094;-67
2022/03/09 02:49:34;;;;;;;13.18;3.58;;;;;;;-10.67;63.24;100313.28;6045240;23;20061;-66
2022/03/09 02:52:00;;;;;;;11.05;3.30;;;;;;;-10.72;63.87;100321.09;6044969;23;20057;-66
2022/03/09 02:54:26;;;;;;;8.77;3.20;;;;;;;-10.83;63.91;100324.59;6044899;23;20103;-67
2022/03/09 02:56:52;;;;;;;10.60;3.33;;;;;;;-10.90;63.62;100312.44;6044725;23;20037;-66
2022/03/09 02:59:18;;;;;;;12.23;3.63;;;;;;;-10.97;63.41;100320.28;6045088;23;20074;-66
2022/03/09 03:01:45;;;;;;;11.80;3.25;;;;;;;-10.97;64.22;100327.22;6022332;23;20023;-67
2022/03/09 03:04:11;;;;;;;11.70;3.20;;;;;;;-11.04;64.78;100321.16;6069162;23;20026;-67
2022/03/09 03:06:37;;;;;;;10.60;2.92;;;;;;;-11.17;64.27;100325.50;6046500;23;20034;-68
2022/03/09 03:09:03;;;;;;;11.43;3.47;;;;;;;-11.24;64.68;100317.66;6022297;23;20112;-66
2022/03/09 03:11:29;;;;;;;11.73;3.88;;;;;;;-11.27;65.11;100328.09;6069576;23;20445;-67
2022/03/09 03:13:55;;;;;;;11.20;3.30;;;;;;;-11.34;64.96;100326.34;6045127;23;20468;-67
2022/03/09 03:16:21;;;;;;;9.43;3.15;;;;;;;-11.37;65.25;100331.56;6045053;23;20314;-67
2022/03/09 03:18:47;;;;;;;12.45;3.95;;;;;;;-11.44;65.81;100326.34;6045051;23;20113;-68
2022/03/09 03:21:13;;;;;;;11.05;3.75;;;;;;;-11.50;65.80;100326.34;6068960;23;20038;-65
2022/03/09 03:23:39;;;;;;;12.57;3.40;;;;;;;-11.55;65.72;100333.28;6045126;23;20026;-67
2022/03/09 03:26:06;;;;;;;17.13;4.13;;;;;;;-11.55;65.25;100327.19;6068749;23;20364;-67
2022/03/09 03:28:32;;;;;;;13.27;4.25;;;;;;;-11.79;65.51;100305.41;6045252;23;20054;-67
2022/03/09 03:30:58;;;;;;;13.48;4.45;;;;;;;-11.69;65.49;100340.22;6046979;23;20079;-67
2022/03/09 03:33:24;;;;;;;16.42;5.47;;;;;;;-11.70;65.41;100347.19;6047633;23;20069;-67
2022/03/09 03:35:51;;;;;;;17.10;4.32;;;;;;;-11.66;66.29;100345.44;6023548;23;20468;-66
2022/03/09 03:38:17;;;;;;;13.25;3.40;;;;;;;-11.77;65.99;100344.50;6096639;23;20030;-67
2022/03/09 03:40:43;;;;;;;14.32;4.25;;;;;;;-11.83;65.75;100347.16;6023518;23;20124;-67
2022/03/09 03:43:10;;;;;;;16.63;4.68;;;;;;;-11.86;66.22;100347.16;6048075;23;20102;-66
2022/03/09 03:45:36;;;;;;;11.65;3.72;;;;;;;-11.82;66.09;100354.06;6071886;23;20098;-66
2022/03/09 03:48:03;;;;;;;16.63;4.50;;;;;;;-11.84;66.70;100361.06;6045912;23;20449;-67
2022/03/09 03:50:29;;;;;;;14.23;4.13;;;;;;;-11.94;66.52;100358.41;6094701;23;20022;-66
2022/03/09 03:52:55;;;;;;;5.63;1.52;;;;;;;-11.91;66.91;100355.81;6093690;23;20049;-67
2022/03/09 03:55:21;;;;;;;13.15;3.80;;;;;;;-11.95;66.89;100356.69;6044945;23;20449;-67
2022/03/09 03:57:47;;;;;;;18.05;4.95;;;;;;;-11.99;67.62;100351.44;6044815;23;20034;-67
2022/03/09 04:00:13;;;;;;;12.50;4.75;;;;;;;-11.99;68.07;100349.72;6045958;23;20022;-66
2022/03/09 04:02:39;;;;;;;11.23;3.15;;;;;;;-11.91;68.20;100361.03;6046178;23;20074;-67
2022/03/09 04:05:06;;;;;;;11.88;4.10;;;;;;;-12.07;68.08;100356.59;6045371;23;20033;-66
2022/03/09 04:07:32;;;;;;;15.93;4.57;;;;;;;-12.14;68.03;100360.06;6021499;23;20038;-67
2022/03/09 04:09:59;;;;;;;17.02;4.28;;;;;;;-12.09;68.15;100360.97;6045408;23;20022;-67
2022/03/09 04:12:25;;;;;;;17.75;4.20;;;;;;;-12.06;68.38;100358.38;6044109;23;20086;-67
2022/03/09 04:14:52;;;;;;;11.80;4.35;;;;;;;-12.06;68.94;100366.19;6044993;23;20321;-66
2022/03/09 04:17:18;;;;;;;12.38;3.85;;;;;;;-11.98;68.78;100363.63;6045778;23;20034;-67
2022/03/09 04:19:44;;;;;;;8.07;2.95;;;;;;;-11.94;68.00;100366.22;6044926;23;20475;-68
2022/03/09 04:22:10;;;;;;;11.45;3.15;;;;;;;-11.85;67.58;100365.38;6045075;23;20026;-67
2022/03/09 04:24:37;;;;;;;13.95;4.45;;;;;;;-11.88;68.12;100369.72;6044827;23;20026;-68
2022/03/09 04:27:04;;;;;;;16.17;4.63;;;;;;;-11.94;67.84;100366.22;6044716;23;20023;-67
2022/03/09 04:29:30;;;;;;;11.70;3.95;;;;;;;-11.86;68.32;100381.03;6068009;23;20086;-68
2022/03/09 04:31:55;;;;;;;14.00;5.00;;;;;;;-11.84;67.52;100376.72;6043760;23;20106;-66
2022/03/09 04:34:22;;;;;;;14.10;3.83;;;;;;;-11.77;67.69;100384.53;6043982;23;20381;-67
2022/03/09 04:36:48;;;;;;;14.82;4.57;;;;;;;-11.69;67.75;100387.16;6044923;23;20330;-67
2022/03/09 04:39:15;;;;;;;13.98;4.82;;;;;;;-11.79;67.54;100375.81;6044236;23;20023;-67
2022/03/09 04:41:41;;;;;;;13.75;4.30;;;;;;;-11.62;68.02;100401.09;6020632;23;20033;-67
2022/03/09 04:44:07;;;;;;;12.30;3.78;;;;;;;-11.69;66.58;100392.38;6045166;23;20018;-67
2022/03/09 04:46:33;;;;;;;7.03;1.45;;;;;;;-11.68;67.06;100394.09;6069010;23;20371;-68
2022/03/09 04:48:59;;;;;;;9.88;2.72;;;;;;;-11.47;65.90;100409.81;6070253;23;20026;-68
2022/03/09 04:51:25;;;;;;;14.68;3.13;;;;;;;-11.42;65.43;100397.66;6045305;23;20026;-66
2022/03/09 04:53:51;;;;;;;12.77;4.18;;;;;;;-11.40;65.66;100404.63;6046346;23;20021;-71
2022/03/09 04:56:17;;;;;;;14.70;4.25;;;;;;;-11.43;66.75;100422.00;6045664;23;20034;-64
2022/03/09 04:58:43;;;;;;;17.45;4.75;;;;;;;-11.31;67.32;100425.50;6044525;23;20077;-65
2022/03/09 05:01:10;;;;;;;16.50;3.72;;;;;;;-11.27;66.96;100427.25;6020807;23;20034;-67
2022/03/09 05:03:37;;;;;;;12.07;3.75;;;;;;;-11.22;65.71;100421.19;6043921;23;20033;-66
2022/03/09 05:06:04;;;;;;;13.25;4.35;;;;;;;-11.13;66.12;100428.16;6043677;23;20111;-64
2022/03/09 05:08:30;;;;;;;13.15;4.15;;;;;;;-11.01;66.20;100435.13;6044280;23;20033;-64
2022/03/09 05:10:56;;;;;;;12.73;4.50;;;;;;;-10.93;64.94;100436.91;6044187;23;20053;-65
2022/03/09 05:13:22;;;;;;;18.20;3.90;;;;;;;-10.83;64.46;100434.28;6068307;23;20022;-65
2022/03/09 05:15:48;;;;;;;14.73;3.78;;;;;;;-10.74;63.78;100444.75;6069097;23;20417;-65
2022/03/09 05:18:14;;;;;;;17.38;4.75;;;;;;;-10.49;63.35;100441.25;6020605;23;20023;-64
2022/03/09 05:20:40;;;;;;;12.57;3.97;;;;;;;-10.32;62.29;100437.75;6020984;23;20421;-66
2022/03/09 05:23:06;;;;;;;11.73;4.72;;;;;;;-10.27;62.76;100446.47;6068601;23;20348;-65
2022/03/09 05:25:32;;;;;;;7.85;2.38;;;;;;;-10.12;62.57;100454.25;6043681;23;20349;-66
2022/03/09 05:27:59;;;;;;;12.85;3.85;;;;;;;-10.12;60.92;100446.41;6043331;23;20364;-69
2022/03/09 05:30:25;;;;;;;8.65;2.85;;;;;;;-10.14;60.94;100452.50;6045894;23;20101;-66
2022/03/09 05:32:51;;;;;;;9.15;2.55;;;;;;;-10.07;61.07;100449.88;6043108;23;20437;-70
2022/03/09 05:35:18;;;;;;;19.20;4.38;;;;;;;-10.09;60.39;100445.50;6033170;23;20022;-64
2022/03/09 05:37:44;;;;;;;14.07;4.18;;;;;;;-9.56;59.98;100463.66;5995561;23;20082;-68
2022/03/09 05:40:11;;;;;;;11.85;3.42;;;;;;;-8.95;57.97;100451.16;6017351;23;20042;-65
2022/03/09 05:42:38;;;;;;;14.27;3.40;;;;;;;-9.28;58.69;100459.19;6066691;23;20081;-66
2022/03/09 05:45:05;;;;;;;15.00;4.75;;;;;;;-8.82;57.71;100460.66;6016714;23;20082;-64
2022/03/09 05:47:31;;;;;;;12.93;4.05;;;;;;;-7.91;54.16;100452.84;6019388;23;20019;-68
2022/03/09 05:49:57;;;;;;;15.50;5.10;;;;;;;-8.04;55.08;100460.88;6018161;23;20034;-67
2022/03/09 05:52:23;;;;;;;19.15;4.57;;;;;;;-8.51;55.29;100459.56;5999346;23;20034;-72
2022/03/09 05:54:49;;;;;;;15.10;5.20;;;;;;;-8.60;55.75;100470.09;5999622;23;20416;-65
2022/03/09 05:57:20;;;;;;;15.52;4.30;;;;;;;-8.63;56.92;100475.34;6067667;23;20038;-66
2022/03/09 05:59:46;;;;;;;;;;;;;;;-8.77;56.58;100456.28;6020552;23;20038;-63
2022/03/09 06:02:12;;;;;;;19.83;5.05;;;;;;;-8.36;55.74;100470.78;6070722;23;19981;-64
2022/03/09 06:04:39;;;;;;;11.35;3.67;;;;;;;-8.27;55.20;100473.31;6024430;23;20065;-72
2022/03/09 06:07:06;;;;;;;13.27;4.63;;;;;;;-8.21;53.31;100452.28;6020615;23;20105;-66
2022/03/09 06:09:32;;;;;;;14.63;4.30;;;;;;;-7.86;54.17;100479.91;6021924;23;20113;-66
2022/03/09 06:11:58;;;;;;;14.20;4.45;;;;;;;-7.79;53.33;100477.22;6000915;23;20137;-66
2022/03/09 06:14:24;;;;;;;21.42;4.47;;;;;;;-7.40;52.15;100458.41;6025006;23;20053;-70
2022/03/09 06:16:51;;;;;;;17.40;5.43;;;;;;;-6.53;51.45;100480.81;5999405;23;20027;-66
2022/03/09 06:19:17;;;;;;;19.40;5.70;;;;;;;-6.63;50.26;100480.09;6026782;23;20393;-73
2022/03/09 06:21:43;;;;;;;14.38;4.93;;;;;;;-6.67;49.59;100478.41;6048920;23;20117;-67
2022/03/09 06:24:12;;;;;;;19.15;5.50;;;;;;;-6.47;49.59;100474.59;6049324;23;20125;-70
2022/03/09 06:29:44;;;;;;;10.57;3.33;;;;;;;-5.60;48.11;100491.47;6105067;23;20029;-67
2022/03/09 06:32:10;;;;;;;13.18;4.72;;;;;;;-4.99;46.34;100489.34;6073298;23;20022;-66
2022/03/09 06:34:36;;;;;;;16.98;5.57;;;;;;;-4.40;45.64;100487.13;5999781;23;20553;-66
2022/03/09 06:37:03;;;;;;;18.23;4.63;;;;;;;-4.62;45.90;100490.28;5051875;23;20028;-66
2022/03/09 06:39:28;;;;;;;15.20;5.50;;;;;;;-3.35;44.17;100482.66;4977005;28;20031;-66
2022/03/09 06:41:54;;;;;;;15.77;5.22;;;;;;;-1.48;39.86;100494.31;4983843;28;20032;-65
2022/03/09 06:44:22;;;;;;;22.17;5.97;;;;;;;-0.44;38.42;100484.19;4989617;28;20511;-64
2022/03/09 06:46:48;;;;;;;16.63;5.57;;;;;;;-0.59;37.88;100469.72;4982943;28;20156;-69
2022/03/09 06:49:14;;;;;;;15.93;6.00;;;;;;;-1.46;39.15;100497.78;5011992;23;20040;-67
2022/03/09 06:51:40;;;;;;;14.98;5.45;;;;;;;0.01;34.56;100477.09;4956993;28;20027;-68
2022/03/09 06:54:06;;;;;;;16.88;5.85;;;;;;;0.75;33.25;100490.72;4989737;28;20071;-69
2022/03/09 06:56:32;;;;;;;15.07;5.30;;;;;;;1.08;33.27;100481.19;4998201;28;20031;-67
2022/03/09 06:58:58;;;;;;;16.42;4.82;;;;;;;1.23;32.47;100487.63;4984809;28;20035;-67
2022/03/09 07:01:23;;;;;;;21.33;5.25;;;;;;;0.11;33.45;100494.34;4997300;28;20058;-67
2022/03/09 07:03:49;;;;;;;14.45;5.80;;;;;;;0.18;33.91;100491.41;5002733;23;20433;-69
2022/03/09 07:06:15;;;;;;;19.45;6.75;;;;;;;-0.55;34.02;100475.78;4979120;23;20439;-65
2022/03/09 07:08:41;;;;;;;27.02;7.07;;;;;;;-0.51;34.08;100504.84;4973959;28;20027;-68
2022/03/09 07:11:07;;;;;;;17.77;5.55;;;;;;;-1.37;34.78;100496.56;4982623;28;20071;-68
2022/03/09 07:13:33;;;;;;;25.25;6.10;;;;;;;-1.46;36.34;100508.38;5004395;28;20031;-71
2022/03/09 07:15:58;;;;;;;25.10;6.68;;;;;;;-2.08;36.61;100479.63;5006219;28;20043;-70
2022/03/09 07:18:24;;;;;;;19.13;5.85;;;;;;;-1.66;36.27;100507.34;5014196;28;20040;-72
2022/03/09 07:20:50;;;;;;;27.60;6.53;;;;;;;-0.43;34.92;100499.22;5000236;28;20548;-70
2022/03/09 07:23:16;;;;;;;11.60;4.35;;;;;;;-1.08;35.94;100473.44;5000670;28;20536;-72
2022/03/09 07:25:43;;;;;;;23.25;6.25;;;;;;;-0.47;34.95;100494.97;5000078;28;20044;-69
2022/03/09 07:28:09;;;;;;;16.08;5.78;;;;;;;-0.78;34.02;100496.13;4985288;28;21457;-70
2022/03/09 07:30:35;;;;;;;18.90;4.93;;;;;;;-1.07;35.09;100488.41;4982713;28;20442;-70
2022/03/09 07:33:00;;;;;;;24.30;5.75;;;;;;;-0.77;34.51;100503.19;5010164;28;20162;-71
2022/03/09 07:35:26;;;;;;;16.23;4.60;;;;;;;-1.55;35.05;100489.28;5005274;23;20031;-71
2022/03/09 07:37:55;;;;;;;16.10;5.32;;;;;;;-0.61;34.55;100498.16;5000197;23;20032;-68
2022/03/09 07:40:22;;;;;;;15.80;5.50;;;;;;;-0.20;33.47;100497.44;5020093;23;20035;-70
2022/03/09 07:42:48;;;;;;;18.90;5.50;;;;;;;-1.13;34.30;100502.78;4986987;28;20560;-70
2022/03/09 07:45:14;;;;;;;28.95;6.18;;;;;;;-1.18;33.59;100488.81;5003692;28;20032;-72
2022/03/09 07:47:40;;;;;;;12.93;5.50;;;;;;;-0.82;34.18;100502.50;5000930;28;20083;-68
2022/03/09 07:50:07;;;;;;;14.45;4.70;;;;;;;-1.11;33.07;100497.41;4993548;28;20088;-71
2022/03/09 07:52:34;;;;;;;20.35;5.55;;;;;;;0.40;30.78;100487.81;5005488;28;20063;-70
2022/03/09 07:55:00;;;;;;;19.50;5.90;;;;;;;1.69;29.41;100504.97;5117111;23;20054;-70
2022/03/09 07:57:25;;;;;;;12.98;4.20;;;;;;;1.57;28.38;100499.34;5006479;28;20034;-71
2022/03/09 07:59:51;;;;;;;16.02;5.47;;;;;;;4.49;27.54;100490.72;5010109;28;20407;-71
2022/03/09 08:02:17;;;;;;;14.85;5.70;;;;;;;3.74;26.32;100460.38;5005952;23;20075;-72
2022/03/09 08:04:43;;;;;;;9.77;4.07;;;;;;;2.88;27.22;100502.50;4988421;28;20032;-69
2022/03/09 08:07:09;;;;;;;13.52;4.70;;;;;;;3.70;26.12;100498.94;5006372;28;20165;-70
2022/03/09 08:09:35;;;;;;;13.35;4.93;;;;;;;5.15;24.90;100510.81;5006954;28;20588;-71
2022/03/09 08:12:01;;;;;;;15.52;4.93;;;;;;;5.62;24.12;100520.38;5008992;28;20027;-72
2022/03/09 08:14:27;;;;;;;12.82;4.38;;;;;;;5.87;22.79;100509.78;4999469;28;20097;-73
2022/03/09 08:16:53;;;;;;;13.57;4.72;;;;;;;6.34;23.03;100500.44;5002725;28;20034;-69
2022/03/09 08:19:18;;;;;;;11.88;4.90;;;;;;;6.94;22.88;100507.91;4999293;28;20039;-70
2022/03/09 08:21:44;;;;;;;15.60;5.43;;;;;;;7.81;21.43;100508.88;5005997;28;20028;-69
2022/03/09 08:24:10;;;;;;;11.82;4.97;;;;;;;6.92;22.15;100493.75;4986354;28;20133;-69
2022/03/09 08:26:36;;;;;;;12.88;5.05;;;;;;;7.61;20.69;100496.03;4986978;28;20045;-70
2022/03/09 08:29:02;;;;;;;14.20;6.20;;;;;;;7.63;20.03;100516.47;4975856;28;20035;-70
2022/03/09 08:31:28;;;;;;;16.58;5.03;;;;;;;7.57;20.34;100516.94;5001431;28;20099;-70
2022/03/09 08:33:55;;;;;;;14.25;5.57;;;;;;;7.73;21.47;100500.53;4991299;28;20035;-69
2022/03/09 08:36:22;;;;;;;14.93;5.72;;;;;;;8.02;20.34;100497.53;5002983;28;20048;-70
2022/03/09 08:38:48;;;;;;;12.63;5.70;;;;;;;8.03;20.96;100491.16;4982671;28;20027;-71
2022/03/09 08:41:14;;;;;;;13.52;5.38;;;;;;;7.68;20.24;100516.16;5001912;28;20027;-69
2022/03/09 08:43:40;;;;;;;12.48;5.03;;;;;;;9.66;19.85;100523.44;4994576;28;20053;-71
2022/03/09 08:46:06;;;;;;;13.43;5.20;;;;;;;7.91;20.17;100509.94;5002334;28;20383;-69
2022/03/09 08:48:33;;;;;;;14.68;5.57;;;;;;;7.82;19.71;100505.22;5476617;23;20034;-75
2022/03/09 08:50:59;;;;;;;13.63;4.78;;;;;;;9.30;19.29;100511.91;6044113;23;20026;-74
2022/03/09 08:53:26;;;;;;;14.93;4.63;;;;;;;9.24;18.42;100522.31;6059007;23;20118;-78
2022/03/09 08:55:52;;;;;;;16.52;5.80;;;;;;;9.07;19.83;100526.34;6063151;23;20089;-78
2022/03/09 08:58:18;;;;;;;13.27;4.82;;;;;;;9.00;19.78;100514.31;6064625;23;20094;-77
2022/03/09 09:00:44;;;;;;;12.13;4.47;;;;;;;8.94;19.48;100521.03;6085360;23;20088;-77
2022/03/09 09:03:10;;;;;;;11.77;4.88;;;;;;;8.07;19.40;100522.25;6085382;23;20026;-74
2022/03/09 09:05:36;;;;;;;12.02;4.60;;;;;;;9.15;18.58;100518.50;6060189;23;20014;-78
2022/03/09 09:08:03;;;;;;;11.88;4.85;;;;;;;9.54;17.63;100527.09;6087447;23;20026;-77
2022/03/09 09:10:29;;;;;;;13.35;5.03;;;;;;;8.61;17.83;100530.75;6067792;23;20036;-77
2022/03/09 09:12:58;;;;;;;19.42;5.32;;;;;;;8.53;17.79;100532.31;6067836;23;20015;-77
2022/03/09 09:15:25;;;;;;;13.77;4.97;;;;;;;9.28;19.68;100538.13;6046035;23;20030;-74
2022/03/09 09:18:02;;;;;;;12.65;5.07;;;;;;;10.19;17.61;100534.38;6084919;23;20026;-73
2022/03/09 09:20:30;;;;;;;11.85;4.78;;;;;;;10.12;16.95;100530.47;6021457;23;20030;-78
2022/03/09 09:22:58;;;;;;;13.43;5.53;;;;;;;9.40;17.85;100468.84;6038643;23;20014;-77
2022/03/09 09:25:26;;;;;;;17.33;5.13;;;;;;;9.41;17.85;100509.19;6089036;23;20014;-77
2022/03/09 09:27:54;;;;;;;13.75;5.18;;;;;;;9.01;17.93;100535.78;6039630;23;20006;-71
2022/03/09 09:30:21;;;;;;;16.17;5.25;;;;;;;9.06;18.07;100547.03;6043205;23;20018;-76
2022/03/09 09:32:47;;;;;;;13.55;5.07;;;;;;;9.16;18.39;100541.81;6043862;23;20022;-79
2022/03/09 09:35:17;;;;;;;18.25;5.30;;;;;;;9.93;17.48;100541.06;6063710;23;20011;-78
2022/03/09 09:37:45;;;;;;;11.57;4.57;;;;;;;8.36;17.63;100520.94;6059870;23;20053;-77
2022/03/09 09:40:13;;;;;;;12.75;5.18;;;;;;;9.24;18.47;100536.66;6053650;23;20019;-74
2022/03/09 09:42:40;;;;;;;14.18;5.70;;;;;;;10.14;19.06;100544.72;6025478;23;20033;-76
2022/03/09 09:45:07;;;;;;;17.42;6.07;;;;;;;9.59;17.56;100554.59;6037354;23;20018;-75
2022/03/09 09:47:34;;;;;;;12.63;4.60;;;;;;;9.02;17.56;100550.97;6058176;23;20031;-76
2022/03/09 09:50:02;;;;;;;12.00;4.47;;;;;;;7.76;17.75;100550.59;6048720;23;20551;-72
2022/03/09 09:52:33;;;;;;;11.00;5.00;;;;;;;8.80;16.94;100497.84;6072959;23;20086;-68
2022/03/09 09:55:02;;;;;;;11.73;4.32;;;;;;;7.55;17.81;100526.94;6056298;23;20015;-67
2022/03/09 09:57:30;;;;;;;;;;;;;;;8.99;17.60;100550.34;6081572;23;20022;-75
2022/03/09 10:11:20;;;;;;;17.52;4.45;;;;;;;9.64;16.96;100557.78;6052863;23;20056;-74
2022/03/09 10:13:47;;;;;;;10.93;4.03;;;;;;;8.24;17.89;100537.19;5994639;23;20027;-74
2022/03/09 10:16:18;;;;;;;13.80;3.80;;;;;;;9.52;16.95;100556.94;6019373;23;20052;-74
2022/03/09 10:18:56;;;;;;;13.38;4.10;;;;;;;8.99;16.71;100555.72;6016475;23;20027;-74
2022/03/09 10:21:28;;;;;;;10.02;3.97;;;;;;;8.47;17.62;100554.34;6015709;23;20031;-73
2022/03/09 10:24:09;;;;;;;15.32;4.45;;;;;;;9.39;17.50;100558.88;6010375;23;20027;-69
2022/03/09 10:26:42;;;;;;;11.43;4.45;;;;;;;8.44;18.04;100561.66;6014449;23;20069;-71
2022/03/09 10:29:09;;;;;;;10.15;3.85;;;;;;;8.70;17.55;100566.91;5988199;23;20023;-72
2022/03/09 10:31:41;;;;;;;16.13;4.15;;;;;;;8.16;17.50;100556.59;6014025;23;20078;-72
2022/03/09 10:34:12;;;;;;;11.15;3.97;;;;;;;8.49;18.02;100523.63;5990367;23;20148;-72
2022/03/09 10:37:03;;;;;;;11.80;4.10;;;;;;;8.69;17.68;100567.91;6041921;23;20039;-74
2022/03/09 10:39:33;;;;;;;10.15;4.00;;;;;;;9.62;17.38;100565.16;5963061;23;20023;-72
2022/03/09 10:41:59;;;;;;;11.45;4.43;;;;;;;9.96;17.61;100567.84;6013021;23;20086;-74
2022/03/09 10:44:46;;;;;;;13.98;4.20;;;;;;;9.50;17.43;100572.38;5991139;23;20034;-73
2022/03/09 10:47:32;;;;;;;12.60;4.70;;;;;;;8.98;17.36;100564.81;6015855;23;20023;-73
2022/03/09 10:50:13;;;;;;;12.57;4.45;;;;;;;7.92;17.80;100568.19;6012268;23;20557;-75
2022/03/09 10:53:00;;;;;;;13.90;3.78;;;;;;;9.19;17.54;100557.75;5996620;23;20039;-74
2022/03/09 10:55:32;;;;;;;9.82;3.70;;;;;;;10.06;17.22;100568.81;6021330;23;20371;-76
2022/03/09 10:58:17;;;;;;;12.18;4.93;;;;;;;9.34;17.80;100580.81;6024710;23;20023;-74
2022/03/09 11:00:47;;;;;;;11.23;4.63;;;;;;;10.35;18.21;100567.28;6005269;23;20030;-74
2022/03/09 11:03:22;;;;;;;12.00;4.18;;;;;;;7.84;17.87;100570.56;6024399;23;20023;-74
2022/03/09 11:05:53;;;;;;;12.77;4.75;;;;;;;8.34;17.83;100576.78;6027159;23;20136;-74
2022/03/09 11:08:20;;;;;;;11.85;4.78;;;;;;;8.93;17.88;100574.13;6028402;23;20050;-75
2022/03/09 11:10:47;;;;;;;14.70;4.82;;;;;;;9.55;18.30;100580.97;6018410;23;20103;-75
2022/03/09 11:13:14;;;;;;;10.35;4.45;;;;;;;9.40;18.85;100571.41;6047895;23;20023;-74
2022/03/09 11:15:42;;;;;;;14.82;4.93;;;;;;;8.87;18.77;100579.97;6058110;23;20078;-77
2022/03/09 11:18:12;;;;;;;13.65;4.35;;;;;;;9.14;17.75;100570.72;6051647;23;20030;-76
2022/03/09 11:20:39;;;;;;;11.35;4.57;;;;;;;8.65;19.18;100579.91;6087974;23;20006;-78
2022/03/09 11:23:06;;;;;;;9.60;3.78;;;;;;;8.40;18.43;100584.44;6069827;23;20065;-78
2022/03/09 11:25:32;;;;;;;16.63;4.78;;;;;;;7.93;19.50;100586.09;6067414;23;20055;-75
2022/03/09 11:34:00;;;;;;;16.45;6.63;;;;;;;8.78;18.32;100585.22;6076532;23;20033;-76
2022/03/09 11:36:29;;;;;;;13.85;4.32;;;;;;;8.12;18.72;100587.44;6041601;23;20015;-76
2022/03/09 11:51:10;;;;;;;13.50;4.07;;;;;;;7.05;19.26;100595.88;6111993;23;20021;-77